createdAt,value
2018-05-11T00:01:43.402Z,8.20
2018-05-11T00:04:09.687Z,7.80
2018-05-11T00:06:35.969Z,7.47
2018-05-11T00:09:02.380Z,8.60
2018-05-11T00:11:28.666Z,9.57
2018-05-11T00:13:54.923Z,8.57
2018-05-11T00:16:21.220Z,8.40
2018-05-11T00:18:48.233Z,8.00
2018-05-11T00:21:14.530Z,8.05
2018-05-11T00:23:40.813Z,7.95
2018-05-11T00:26:07.826Z,8.65
2018-05-11T00:28:34.154Z,8.70
2018-05-11T00:31:00.440Z,8.98
2018-05-11T00:33:27.482Z,8.13
2018-05-11T00:35:54.489Z,9.13
2018-05-11T00:38:20.761Z,9.65
2018-05-11T00:40:47.798Z,10.32
2018-05-11T00:43:14.062Z,9.40
2018-05-11T00:45:40.404Z,9.40
2018-05-11T00:48:06.672Z,9.40
2018-05-11T00:50:32.946Z,8.85
2018-05-11T00:52:59.255Z,8.40
2018-05-11T00:55:38.514Z,8.60
2018-05-11T00:58:04.815Z,8.88
2018-05-11T01:00:31.830Z,11.02
2018-05-11T01:02:58.110Z,10.05
2018-05-11T01:05:25.114Z,11.18
2018-05-11T01:07:51.386Z,9.00
2018-05-11T01:10:18.403Z,9.95
2018-05-11T01:12:44.670Z,10.07
2018-05-11T01:15:10.981Z,10.07
2018-05-11T01:17:37.266Z,10.40
2018-05-11T01:20:03.609Z,10.13
2018-05-11T01:22:29.877Z,9.93
2018-05-11T01:24:56.885Z,11.00
2018-05-11T01:27:23.190Z,10.18
2018-05-11T01:29:49.471Z,11.45
2018-05-11T01:32:16.536Z,9.68
2018-05-11T01:34:43.536Z,9.75
2018-05-11T01:37:09.815Z,8.80
2018-05-11T01:39:36.110Z,10.73
2018-05-11T01:42:02.498Z,9.25
2018-05-11T01:44:28.801Z,9.02
2018-05-11T01:46:55.784Z,10.35
2018-05-11T01:49:22.042Z,9.32
2018-05-11T01:51:48.362Z,10.40
2018-05-11T01:54:14.643Z,11.05
2018-05-11T01:56:41.654Z,10.05
2018-05-11T01:59:07.950Z,8.98
2018-05-11T02:01:34.199Z,9.60
2018-05-11T02:04:00.474Z,9.98
2018-05-11T02:06:27.563Z,9.90
2018-05-11T02:08:53.823Z,9.65
2018-05-11T02:11:20.099Z,8.98
2018-05-11T02:13:46.408Z,10.90
2018-05-11T02:16:13.433Z,8.85
2018-05-11T02:18:39.761Z,9.13
2018-05-11T02:21:05.996Z,9.98
2018-05-11T02:23:32.289Z,8.90
2018-05-11T02:25:58.598Z,9.50
2018-05-11T02:28:25.590Z,10.27
2018-05-11T02:30:51.860Z,10.18
2018-05-11T02:33:18.863Z,10.27
2018-05-11T02:35:45.190Z,10.05
2018-05-11T02:38:11.463Z,8.93
2018-05-11T02:40:38.481Z,9.85
2018-05-11T02:43:04.762Z,8.85
2018-05-11T02:45:31.057Z,9.60
2018-05-11T02:47:57.366Z,10.48
2018-05-11T02:50:23.623Z,10.52
2018-05-11T02:52:49.929Z,10.50
2018-05-11T02:55:16.238Z,11.05
2018-05-11T02:57:42.536Z,10.65
2018-05-11T03:00:08.811Z,9.40
2018-05-11T03:02:35.072Z,10.15
2018-05-11T03:05:01.402Z,11.00
2018-05-11T03:07:27.678Z,9.30
2018-05-11T03:09:53.951Z,9.32
2018-05-11T03:12:20.240Z,11.20
2018-05-11T03:14:46.502Z,9.73
2018-05-11T03:17:12.787Z,10.10
2018-05-11T03:19:39.066Z,10.05
2018-05-11T03:22:05.660Z,10.20
2018-05-11T03:24:31.933Z,11.32
2018-05-11T03:26:58.203Z,11.23
2018-05-11T03:29:24.486Z,11.80
2018-05-11T03:31:50.761Z,10.82
2018-05-11T03:34:17.073Z,10.63
2018-05-11T03:36:44.085Z,11.30
2018-05-11T03:39:10.342Z,11.82
2018-05-11T03:41:36.609Z,12.15
2018-05-11T03:44:02.922Z,11.35
2018-05-11T03:46:30.305Z,11.50
2018-05-11T03:48:57.323Z,12.15
2018-05-11T03:51:23.621Z,13.10
2018-05-11T03:53:49.919Z,11.88
2018-05-11T03:56:16.229Z,11.75
2018-05-11T03:58:42.542Z,12.45
2018-05-11T04:04:21.565Z,10.90
2018-05-11T04:07:01.008Z,12.13
2018-05-11T04:09:27.297Z,11.60
2018-05-11T04:11:53.586Z,12.43
2018-05-11T04:14:20.631Z,11.07
2018-05-11T04:16:47.637Z,11.55
2018-05-11T04:19:13.910Z,12.18
2018-05-11T04:21:40.177Z,11.60
2018-05-11T04:24:06.434Z,12.98
2018-05-11T04:26:32.722Z,12.23
2018-05-11T04:28:58.983Z,10.80
2018-05-11T04:31:25.258Z,13.18
2018-05-11T04:33:52.290Z,11.18
2018-05-11T04:36:18.557Z,11.35
2018-05-11T04:38:44.855Z,11.05
2018-05-11T04:41:11.127Z,11.88
2018-05-11T04:43:37.462Z,12.43
2018-05-11T04:46:03.730Z,12.27
2018-05-11T04:48:29.993Z,13.23
2018-05-11T04:50:57.019Z,12.30
2018-05-11T04:53:23.320Z,11.75
2018-05-11T04:55:49.650Z,11.20
2018-05-11T04:58:15.906Z,13.32
2018-05-11T05:00:42.162Z,12.00
2018-05-11T05:03:09.194Z,13.02
2018-05-11T05:05:35.450Z,12.93
2018-05-11T05:08:01.721Z,14.23
2018-05-11T05:10:28.026Z,11.98
2018-05-11T05:12:54.280Z,14.15
2018-05-11T05:15:20.552Z,13.48
2018-05-11T05:17:47.588Z,13.73
2018-05-11T05:20:14.595Z,13.52
2018-05-11T05:22:40.888Z,14.20
2018-05-11T05:25:07.947Z,14.13
2018-05-11T05:27:34.221Z,13.75
2018-05-11T05:30:00.530Z,14.57
2018-05-11T05:32:26.790Z,14.68
2018-05-11T05:34:53.062Z,19.65
2018-05-11T05:37:19.329Z,15.70
2018-05-11T05:39:45.602Z,17.05
2018-05-11T05:42:12.605Z,16.08
2018-05-11T05:44:38.890Z,17.42
2018-05-11T05:47:05.178Z,16.05
2018-05-11T05:49:31.453Z,23.63
2018-05-11T05:51:57.836Z,28.60
2018-05-11T05:54:24.038Z,24.12
2018-05-11T05:56:50.338Z,20.57
2018-05-11T05:59:16.620Z,17.97
2018-05-11T06:01:42.911Z,17.23
2018-05-11T06:04:09.935Z,15.83
2018-05-11T06:06:36.948Z,21.00
2018-05-11T06:09:03.294Z,22.87
2018-05-11T06:11:29.558Z,22.70
2018-05-11T06:13:56.597Z,23.30
2018-05-11T06:16:22.908Z,21.30
2018-05-11T06:18:49.925Z,21.87
2018-05-11T06:21:16.257Z,20.60
2018-05-11T06:23:42.518Z,17.30
2018-05-11T06:26:08.816Z,19.80
2018-05-11T06:28:35.062Z,24.87
2018-05-11T06:31:01.327Z,22.10
2018-05-11T06:33:27.602Z,32.78
2018-05-11T06:35:53.874Z,20.20
2018-05-11T06:38:20.926Z,18.47
2018-05-11T06:40:47.924Z,17.70
2018-05-11T06:43:14.194Z,16.70
2018-05-11T06:45:40.547Z,18.83
2018-05-11T06:48:06.884Z,18.73
2018-05-11T06:50:33.170Z,17.02
2018-05-11T06:52:59.474Z,17.40
2018-05-11T06:55:25.761Z,18.07
2018-05-11T06:57:52.838Z,17.10
2018-05-11T07:00:19.105Z,17.90
2018-05-11T07:02:45.398Z,16.57
2018-05-11T07:05:11.671Z,14.80
2018-05-11T07:07:38.021Z,16.63
2018-05-11T07:10:04.233Z,14.50
2018-05-11T07:12:30.490Z,15.50
2018-05-11T07:14:56.852Z,17.00
2018-05-11T07:17:23.158Z,14.83
2018-05-11T07:19:50.155Z,14.73
2018-05-11T07:22:16.464Z,16.10
2018-05-11T07:24:42.719Z,13.90
2018-05-11T07:27:09.001Z,14.27
2018-05-11T07:29:35.295Z,15.40
2018-05-11T07:32:01.578Z,15.27
2018-05-11T07:34:27.839Z,14.80
2018-05-11T07:36:54.120Z,15.20
2018-05-11T07:39:20.410Z,15.50
2018-05-11T07:41:46.675Z,15.13
2018-05-11T07:44:12.938Z,15.57
2018-05-11T07:46:39.207Z,15.70
2018-05-11T07:49:06.243Z,17.40
2018-05-11T07:51:32.536Z,17.60
2018-05-11T07:53:58.833Z,18.37
2018-05-11T07:56:25.850Z,16.40
2018-05-11T07:58:52.134Z,14.13
2018-05-11T08:01:18.389Z,15.80
2018-05-11T08:03:44.703Z,13.60
2018-05-11T08:06:10.973Z,15.17
2018-05-11T08:08:37.258Z,15.00
2018-05-11T08:11:03.521Z,14.73
2018-05-11T08:13:29.773Z,13.60
2018-05-11T08:15:56.151Z,13.60
2018-05-11T08:18:22.350Z,14.60
2018-05-11T08:20:48.623Z,13.20
2018-05-11T08:23:22.581Z,12.67
2018-05-11T08:25:48.881Z,13.50
2018-05-11T08:28:15.150Z,13.10
2018-05-11T08:30:42.162Z,12.57
2018-05-11T08:33:08.455Z,13.13
2018-05-11T08:35:34.730Z,12.30
2018-05-11T08:38:01.005Z,13.20
2018-05-11T08:40:27.291Z,13.50
2018-05-11T08:42:53.549Z,14.70
2018-05-11T08:45:19.846Z,14.43
2018-05-11T08:47:46.141Z,14.73
2018-05-11T08:50:12.419Z,14.63
2018-05-11T08:52:38.718Z,15.47
2018-05-11T08:55:04.978Z,14.67
2018-05-11T08:57:32.014Z,13.40
2018-05-11T08:59:58.290Z,14.20
2018-05-11T09:02:24.561Z,13.90
2018-05-11T09:04:50.877Z,14.40
2018-05-11T09:07:17.188Z,13.10
2018-05-11T09:09:43.801Z,12.67
2018-05-11T09:12:10.843Z,12.00
2018-05-11T09:14:37.877Z,12.00
2018-05-11T09:17:04.189Z,11.57
2018-05-11T09:19:30.449Z,12.83
2018-05-11T09:21:57.456Z,11.70
2018-05-11T09:24:23.743Z,11.10
2018-05-11T09:26:50.009Z,12.07
2018-05-11T09:29:16.318Z,10.50
2018-05-11T09:31:42.695Z,12.10
2018-05-11T09:34:09.635Z,10.50
2018-05-11T09:36:35.944Z,10.70
2018-05-11T09:39:02.291Z,9.97
2018-05-11T09:41:28.565Z,11.07
2018-05-11T09:43:55.658Z,9.73
2018-05-11T09:46:21.958Z,10.40
2018-05-11T09:48:48.200Z,12.13
2018-05-11T09:51:14.462Z,9.70
2018-05-11T09:53:40.754Z,8.40
2018-05-11T09:56:07.047Z,9.07
2018-05-11T09:58:33.307Z,9.20
2018-05-11T10:00:59.653Z,8.47
2018-05-11T10:03:25.929Z,10.43
2018-05-11T10:05:52.242Z,9.43
2018-05-11T10:08:18.542Z,10.17
2018-05-11T10:10:44.806Z,9.67
2018-05-11T10:13:11.166Z,8.07
2018-05-11T10:15:38.185Z,9.27
2018-05-11T10:18:04.469Z,8.20
2018-05-11T10:20:30.715Z,9.70
2018-05-11T10:22:57.018Z,7.93
2018-05-11T10:25:24.018Z,14.40
2018-05-11T10:27:50.310Z,10.70
2018-05-11T10:30:16.566Z,8.73
2018-05-11T10:32:42.846Z,6.00
2018-05-11T10:35:09.857Z,6.10
2018-05-11T10:37:36.129Z,7.30
2018-05-11T10:40:02.445Z,6.00
2018-05-11T10:42:29.461Z,7.63
2018-05-11T10:44:55.749Z,5.27
2018-05-11T10:47:22.018Z,6.77
2018-05-11T10:49:48.314Z,7.67
2018-05-11T10:52:14.586Z,6.30
2018-05-11T10:54:40.854Z,6.60
2018-05-11T10:57:07.902Z,6.20
2018-05-11T10:59:34.923Z,7.20
2018-05-11T11:02:01.210Z,7.70
2018-05-11T11:04:27.478Z,6.80
2018-05-11T11:06:53.777Z,6.27
2018-05-11T11:09:20.090Z,6.57
2018-05-11T11:11:46.361Z,6.90
2018-05-11T11:14:12.647Z,6.30
2018-05-11T11:16:38.956Z,5.77
2018-05-11T11:19:05.975Z,6.50
2018-05-11T11:21:32.244Z,8.20
2018-05-11T11:23:58.490Z,7.23
2018-05-11T11:26:24.770Z,7.40
2018-05-11T11:28:51.787Z,6.60
2018-05-11T11:31:18.086Z,8.30
2018-05-11T11:33:44.380Z,6.47
2018-05-11T11:36:10.748Z,6.27
2018-05-11T11:38:37.025Z,6.57
2018-05-11T11:41:03.368Z,7.10
2018-05-11T11:43:29.602Z,5.90
2018-05-11T11:45:56.602Z,7.17
2018-05-11T11:48:22.878Z,6.00
2018-05-11T11:50:49.904Z,6.77
2018-05-11T11:53:16.286Z,4.90
2018-05-11T11:55:42.588Z,4.63
2018-05-11T11:58:08.883Z,4.53
2018-05-11T12:00:35.134Z,7.00
2018-05-11T12:03:01.396Z,5.83
2018-05-11T12:05:28.465Z,5.30
2018-05-11T12:07:55.088Z,10.00
2018-05-11T12:10:22.118Z,4.03
2018-05-11T12:12:49.138Z,3.33
2018-05-11T12:15:15.391Z,3.67
2018-05-11T12:17:41.738Z,3.00
2018-05-11T12:20:08.742Z,3.80
2018-05-11T12:22:35.018Z,3.93
2018-05-11T12:25:02.093Z,4.13
2018-05-11T12:27:28.345Z,3.57
2018-05-11T12:29:54.641Z,4.90
2018-05-11T12:32:20.917Z,3.80
2018-05-11T12:34:47.221Z,3.63
2018-05-11T12:37:13.470Z,3.40
2018-05-11T12:39:39.765Z,4.50
2018-05-11T12:42:06.026Z,3.63
2018-05-11T12:44:32.277Z,3.57
2018-05-11T12:46:58.606Z,4.00
2018-05-11T12:49:24.860Z,3.07
2018-05-11T12:51:51.870Z,3.30
2018-05-11T12:54:18.150Z,3.50
2018-05-11T12:56:44.465Z,9.93
2018-05-11T12:59:10.741Z,7.43
2018-05-11T13:01:37.029Z,3.57
2018-05-11T13:04:04.051Z,3.73
2018-05-11T13:06:30.347Z,3.50
2018-05-11T13:08:57.240Z,4.00
2018-05-11T13:11:24.319Z,2.97
2018-05-11T13:13:50.597Z,2.90
2018-05-11T13:16:16.902Z,3.17
2018-05-11T13:18:43.193Z,3.30
2018-05-11T13:21:10.288Z,2.97
2018-05-11T13:23:36.464Z,3.17
2018-05-11T13:26:03.522Z,7.33
2018-05-11T13:28:29.783Z,3.77
2018-05-11T13:30:56.081Z,3.67
2018-05-11T13:33:22.354Z,4.00
2018-05-11T13:35:48.667Z,4.43
2018-05-11T13:38:14.965Z,3.30
2018-05-11T13:40:41.241Z,3.50
2018-05-11T13:43:07.539Z,5.83
2018-05-11T13:45:33.799Z,3.93
2018-05-11T13:48:00.070Z,4.27
2018-05-11T13:50:26.387Z,3.83
2018-05-11T13:52:52.672Z,3.50
2018-05-11T13:55:18.973Z,5.33
2018-05-11T13:57:45.993Z,4.20
2018-05-11T14:00:12.282Z,5.23
2018-05-11T14:02:38.538Z,3.70
2018-05-11T14:05:04.822Z,3.60
2018-05-11T14:07:31.099Z,3.90
2018-05-11T14:09:57.384Z,4.47
2018-05-11T14:12:23.669Z,3.43
2018-05-11T14:14:49.991Z,3.30
2018-05-11T14:17:16.254Z,4.00
2018-05-11T14:19:43.271Z,3.50
2018-05-11T14:22:09.557Z,3.23
2018-05-11T14:24:35.825Z,3.27
2018-05-11T14:27:02.150Z,3.57
2018-05-11T14:29:28.411Z,8.27
2018-05-11T14:31:54.794Z,4.03
2018-05-11T14:34:20.984Z,3.50
2018-05-11T14:36:48.259Z,3.37
2018-05-11T14:39:14.570Z,3.03
2018-05-11T14:41:40.861Z,3.30
2018-05-11T14:44:07.153Z,3.17
2018-05-11T14:46:33.435Z,3.13
2018-05-11T14:48:59.703Z,3.10
2018-05-11T14:51:26.014Z,2.70
2018-05-11T14:53:53.094Z,2.50
2018-05-11T14:56:19.361Z,3.37
2018-05-11T14:58:45.704Z,2.83
2018-05-11T15:01:11.948Z,4.67
2018-05-11T15:03:38.989Z,3.03
2018-05-11T15:06:06.053Z,3.33
2018-05-11T15:08:33.065Z,3.67
2018-05-11T15:10:59.354Z,2.37
2018-05-11T15:13:25.620Z,2.50
2018-05-11T15:15:51.982Z,2.40
2018-05-11T15:18:19.059Z,2.80
2018-05-11T15:20:45.330Z,2.60
2018-05-11T15:23:11.597Z,2.50
2018-05-11T15:25:38.610Z,2.97
2018-05-11T15:28:04.895Z,2.80
2018-05-11T15:30:31.171Z,2.83
2018-05-11T15:32:57.546Z,2.63
2018-05-11T15:35:23.862Z,3.03
2018-05-11T15:37:50.126Z,3.37
2018-05-11T15:40:16.412Z,4.70
2018-05-11T15:42:43.438Z,6.90
2018-05-11T15:45:09.729Z,4.60
2018-05-11T15:47:35.997Z,3.10
2018-05-11T15:50:02.302Z,4.13
2018-05-11T15:52:28.595Z,3.33
2018-05-11T15:54:55.662Z,2.60
2018-05-11T15:57:21.906Z,3.37
2018-05-11T15:59:48.162Z,3.03
2018-05-11T16:02:14.449Z,3.27
2018-05-11T16:04:40.708Z,3.57
2018-05-11T16:07:07.037Z,3.27
2018-05-11T16:09:33.309Z,3.27
2018-05-11T16:11:59.586Z,2.87
2018-05-11T16:14:25.866Z,3.00
2018-05-11T16:16:52.899Z,2.93
2018-05-11T16:19:19.189Z,2.53
2018-05-11T16:21:45.498Z,3.20
2018-05-11T16:24:11.830Z,3.77
2018-05-11T16:26:38.126Z,3.70
2018-05-11T16:29:04.395Z,3.07
2018-05-11T16:31:30.654Z,3.80
2018-05-11T16:33:56.935Z,3.10
2018-05-11T16:36:23.257Z,5.27
2018-05-11T16:38:50.254Z,5.87
2018-05-11T16:41:16.546Z,3.23
2018-05-11T16:43:42.821Z,6.20
2018-05-11T16:46:09.128Z,3.47
2018-05-11T16:48:35.403Z,4.03
2018-05-11T16:51:01.738Z,3.27
2018-05-11T16:53:28.013Z,2.90
2018-05-11T16:55:54.329Z,2.80
2018-05-11T16:58:21.358Z,3.30
2018-05-11T17:00:48.377Z,4.63
2018-05-11T17:03:14.735Z,3.57
2018-05-11T17:05:41.000Z,5.50
2018-05-11T17:08:07.350Z,3.20
2018-05-11T17:10:33.629Z,3.80
2018-05-11T17:12:59.891Z,3.40
2018-05-11T17:15:26.162Z,3.50
2018-05-11T17:17:52.458Z,4.30
2018-05-11T17:20:18.722Z,3.70
2018-05-11T17:22:45.120Z,4.00
2018-05-11T17:25:11.294Z,4.13
2018-05-11T17:27:37.598Z,3.30
2018-05-11T17:30:04.018Z,3.67
2018-05-11T17:32:30.282Z,4.20
2018-05-11T17:34:57.362Z,4.70
2018-05-11T17:37:24.407Z,4.40
2018-05-11T17:39:50.658Z,4.27
2018-05-11T17:42:16.962Z,6.07
2018-05-11T17:44:43.239Z,4.17
2018-05-11T17:47:09.569Z,4.73
2018-05-11T17:49:35.887Z,3.83
2018-05-11T17:52:02.190Z,10.40
2018-05-11T17:54:29.222Z,4.47
2018-05-11T17:56:55.573Z,6.17
2018-05-11T17:59:21.831Z,4.10
2018-05-11T18:01:48.125Z,4.60
2018-05-11T18:04:15.163Z,3.80
2018-05-11T18:06:41.500Z,4.53
2018-05-11T18:09:07.715Z,5.13
2018-05-11T18:11:34.018Z,9.17
2018-05-11T18:14:00.340Z,4.63
2018-05-11T18:16:26.623Z,4.20
2018-05-11T18:18:53.690Z,5.27
2018-05-11T18:21:19.970Z,3.70
2018-05-11T18:23:46.251Z,3.70
2018-05-11T18:26:13.250Z,5.10
2018-05-11T18:28:39.569Z,3.50
2018-05-11T18:31:05.859Z,4.80
2018-05-11T18:33:32.135Z,4.60
2018-05-11T18:35:58.393Z,5.00
2018-05-11T18:38:24.679Z,5.53
2018-05-11T18:40:50.966Z,5.63
2018-05-11T18:43:18.001Z,5.40
2018-05-11T18:45:45.050Z,4.03
2018-05-11T18:48:11.310Z,4.97
2018-05-11T18:50:37.593Z,5.17
2018-05-11T18:53:04.097Z,4.83
2018-05-11T18:55:30.246Z,5.93
2018-05-11T18:57:56.509Z,5.00
2018-05-11T19:00:22.810Z,5.47
2018-05-11T19:02:49.106Z,4.40
2018-05-11T19:05:15.391Z,4.87
2018-05-11T19:07:42.410Z,5.10
2018-05-11T19:10:08.691Z,4.67
2018-05-11T19:12:34.971Z,4.77
2018-05-11T19:15:01.275Z,5.33
2018-05-11T19:17:27.561Z,4.67
2018-05-11T19:19:53.879Z,3.40
2018-05-11T19:22:20.158Z,4.67
2018-05-11T19:24:46.435Z,4.43
2018-05-11T19:27:12.700Z,4.20
2018-05-11T19:29:39.705Z,4.83
2018-05-11T19:32:06.002Z,6.07
2018-05-11T19:34:32.390Z,4.60
2018-05-11T19:36:59.442Z,4.00
2018-05-11T19:39:26.452Z,4.27
2018-05-11T19:41:52.742Z,6.03
2018-05-11T19:44:19.014Z,3.77
2018-05-11T19:46:45.324Z,4.40
2018-05-11T19:49:11.642Z,5.00
2018-05-11T19:51:37.909Z,4.47
2018-05-11T19:54:04.195Z,4.70
2018-05-11T19:56:30.465Z,4.23
2018-05-11T19:58:56.750Z,4.40
2018-05-11T20:01:23.030Z,5.50
2018-05-11T20:03:49.289Z,4.47
2018-05-11T20:06:16.351Z,4.30
2018-05-11T20:08:42.622Z,5.77
2018-05-11T20:11:08.922Z,6.17
2018-05-11T20:13:35.202Z,7.00
2018-05-11T20:16:01.473Z,4.77
2018-05-11T20:18:27.766Z,5.73
2018-05-11T20:20:54.042Z,4.87
2018-05-11T20:23:20.331Z,4.80
2018-05-11T20:25:47.358Z,4.30
2018-05-11T20:28:13.666Z,5.00
2018-05-11T20:30:39.937Z,5.30
2018-05-11T20:33:06.987Z,5.13
2018-05-11T20:35:33.240Z,4.13
2018-05-11T20:38:00.263Z,4.60
2018-05-11T20:40:26.593Z,4.40
2018-05-11T20:42:52.889Z,5.00
2018-05-11T20:45:19.182Z,6.80
2018-05-11T20:47:45.463Z,6.33
2018-05-11T20:50:11.768Z,4.60
2018-05-11T20:52:38.071Z,4.70
2018-05-11T20:55:04.414Z,5.83
2018-05-11T20:57:30.723Z,5.40
2018-05-11T20:59:57.784Z,4.80
2018-05-11T21:02:24.035Z,7.03
2018-05-11T21:04:50.405Z,4.80
2018-05-11T21:07:17.364Z,6.70
2018-05-11T21:09:44.386Z,5.23
2018-05-11T21:12:10.669Z,4.90
2018-05-11T21:14:37.758Z,6.43
2018-05-11T21:17:04.735Z,5.77
2018-05-11T21:19:31.785Z,5.07
2018-05-11T21:21:58.812Z,4.93
2018-05-11T21:24:25.101Z,6.50
2018-05-11T21:26:51.383Z,5.67
2018-05-11T21:29:17.639Z,4.73
2018-05-11T21:31:44.673Z,5.87
2018-05-11T21:34:11.702Z,5.63
2018-05-11T21:36:37.986Z,5.50
2018-05-11T21:39:04.294Z,5.13
2018-05-11T21:41:31.314Z,5.10
2018-05-11T21:43:57.574Z,5.43
2018-05-11T21:46:23.890Z,6.30
2018-05-11T21:48:50.923Z,6.40
2018-05-11T21:51:17.977Z,5.30
2018-05-11T21:53:44.986Z,5.87
2018-05-11T21:56:11.275Z,5.80
2018-05-11T21:58:38.283Z,5.43
2018-05-11T22:01:04.582Z,5.70
2018-05-11T22:03:30.862Z,5.33
2018-05-11T22:05:57.207Z,5.87
2018-05-11T22:08:23.455Z,5.10
2018-05-11T22:10:49.727Z,5.90
2018-05-11T22:13:16.017Z,6.10
2018-05-11T22:15:42.313Z,5.30
2018-05-11T22:18:08.615Z,7.17
2018-05-11T22:20:34.889Z,6.77
2018-05-11T22:23:01.901Z,6.23
2018-05-11T22:25:28.178Z,6.70
2018-05-11T22:27:55.445Z,6.13
2018-05-11T22:30:21.774Z,6.30
2018-05-11T22:32:48.047Z,7.00
2018-05-11T22:35:14.326Z,6.60
2018-05-11T22:37:40.598Z,6.10
2018-05-11T22:40:06.883Z,6.77
2018-05-11T22:42:33.231Z,6.30
2018-05-11T22:44:59.511Z,6.53
2018-05-11T22:47:25.819Z,5.73
2018-05-11T22:49:52.150Z,6.00
2018-05-11T22:52:18.418Z,6.50
2018-05-11T22:54:44.754Z,6.60
2018-05-11T22:57:11.049Z,5.93
2018-05-11T22:59:37.319Z,7.00
2018-05-11T23:02:03.614Z,6.07
2018-05-11T23:04:29.897Z,6.23
2018-05-11T23:06:56.171Z,6.10
2018-05-11T23:09:22.444Z,6.30
2018-05-11T23:11:48.781Z,5.97
2018-05-11T23:14:15.099Z,6.47
2018-05-11T23:16:42.125Z,7.30
2018-05-11T23:19:08.395Z,5.80
2018-05-11T23:21:34.694Z,5.67
2018-05-11T23:24:01.723Z,6.73
2018-05-11T23:26:28.037Z,5.90
2018-05-11T23:28:54.328Z,6.83
2018-05-11T23:31:20.733Z,6.37
2018-05-11T23:33:47.028Z,7.13
2018-05-11T23:36:13.326Z,7.00
2018-05-11T23:38:39.587Z,7.07
2018-05-11T23:41:05.861Z,6.90
2018-05-11T23:43:32.862Z,6.50
2018-05-11T23:45:59.167Z,7.47
2018-05-11T23:48:25.429Z,6.77
2018-05-11T23:50:51.690Z,7.03
2018-05-11T23:53:18.735Z,6.40
2018-05-11T23:55:45.814Z,6.57
2018-05-11T23:58:12.132Z,6.60
